createdAt,value
2019-05-13T00:07:46.048Z,22.1
2019-05-13T00:17:45.264Z,22.1
2019-05-13T00:27:44.683Z,22
2019-05-13T00:37:44.214Z,22
2019-05-13T00:47:43.603Z,21.9
2019-05-13T00:57:43.616Z,21.9
2019-05-13T01:07:41.333Z,21.9
2019-05-13T01:17:40.546Z,21.8
2019-05-13T01:27:39.768Z,21.8
2019-05-13T01:37:42.425Z,21.8
2019-05-13T01:47:38.189Z,21.8
2019-05-13T01:57:37.402Z,21.7
2019-05-13T02:07:36.623Z,21.7
2019-05-13T02:17:35.841Z,21.6
2019-05-13T02:27:35.055Z,21.6
2019-05-13T02:37:34.498Z,21.6
2019-05-13T02:47:33.476Z,21.6
2019-05-13T02:57:33.004Z,21.6
2019-05-13T03:07:33.250Z,21.6
2019-05-13T03:17:32.610Z,21.6
2019-05-13T03:27:33.612Z,21.5
2019-05-13T03:37:34.389Z,21.4
2019-05-13T03:47:28.761Z,21.4
2019-05-13T03:57:27.968Z,21.4
2019-05-13T04:07:27.188Z,21.4
2019-05-13T04:17:26.404Z,21.4
2019-05-13T04:27:25.629Z,21.4
2019-05-13T04:37:24.881Z,21.4
2019-05-13T04:47:24.041Z,21.6
2019-05-13T04:57:23.259Z,21.6
2019-05-13T05:07:22.530Z,21.7
2019-05-13T05:17:22.469Z,21.8
2019-05-13T05:27:21.382Z,21.9
2019-05-13T05:37:21.795Z,21.9
2019-05-13T05:47:21.294Z,21.9
2019-05-13T05:57:18.547Z,21.9
2019-05-13T06:07:17.760Z,22
2019-05-13T06:17:16.980Z,22.1
2019-05-13T06:27:16.198Z,22.1
2019-05-13T06:37:15.408Z,22.1
2019-05-13T06:47:14.617Z,22.1
2019-05-13T06:57:13.839Z,22.1
2019-05-13T07:07:17.039Z,22.1
2019-05-13T07:17:12.517Z,22.2
2019-05-13T07:27:12.169Z,22.3
2019-05-13T07:37:11.314Z,22.4
2019-05-13T07:47:11.569Z,22.4
2019-05-13T07:57:09.123Z,22.4
2019-05-13T08:07:08.332Z,22.4
2019-05-13T08:17:07.548Z,22.4
2019-05-13T08:27:06.761Z,22.4
2019-05-13T08:37:05.974Z,22.3
2019-05-13T08:47:05.183Z,22.3
2019-05-13T08:57:04.395Z,22.2
2019-05-13T09:07:03.610Z,22.1
2019-05-13T09:17:02.826Z,22.1
2019-05-13T09:27:02.294Z,22.1
2019-05-13T09:38:03.274Z,22
2019-05-13T09:48:01.831Z,22
2019-05-13T09:58:02.382Z,22
2019-05-13T10:08:02.382Z,22.1
2019-05-13T10:18:01.695Z,22.1
2019-05-13T10:27:58.607Z,22
2019-05-13T10:37:57.826Z,22.1
2019-05-13T10:47:56.981Z,22.1
2019-05-13T10:57:56.201Z,22.1
2019-05-13T11:07:55.418Z,22.1
2019-05-13T11:17:54.634Z,22.1
2019-05-13T11:27:58.019Z,22.1
2019-05-13T11:37:53.055Z,22.2
2019-05-13T11:47:52.385Z,22.1
2019-05-13T11:57:53.006Z,22.2
2019-05-13T12:07:53.457Z,22.2
2019-05-13T12:18:53.048Z,22.2
2019-05-13T12:28:53.484Z,22.2
2019-05-13T12:38:53.456Z,22.2
2019-05-13T12:49:53.197Z,22.3
2019-05-13T12:59:52.418Z,22.2
2019-05-13T13:09:53.396Z,22.2
2019-05-13T13:33:13.852Z,22.1
2019-05-13T13:43:12.283Z,22.1
2019-05-13T13:53:13.435Z,22.1
2019-05-13T14:03:08.157Z,22.1
2019-05-13T14:07:07.037Z,22.2
2019-05-13T14:13:07.427Z,22.1
2019-05-13T14:23:06.590Z,22.1
2019-05-13T14:33:05.805Z,22.1
2019-05-13T14:43:05.005Z,22.1
2019-05-13T14:53:04.224Z,22
2019-05-13T15:03:03.430Z,21.9
2019-05-13T15:13:03.104Z,21.9
2019-05-13T15:23:01.869Z,21.9
2019-05-13T15:33:01.720Z,21.9
2019-05-13T15:43:02.379Z,21.9
2019-05-13T15:52:59.497Z,21.9
2019-05-13T16:02:58.716Z,21.9
2019-05-13T16:12:57.943Z,21.9
2019-05-13T16:22:57.147Z,21.9
2019-05-13T16:32:56.371Z,21.9
2019-05-13T16:42:55.573Z,22
2019-05-13T16:52:54.788Z,22
2019-05-13T17:02:54.000Z,22
2019-05-13T17:12:53.214Z,22
2019-05-13T17:22:52.434Z,22.1
2019-05-13T17:32:51.687Z,22.1
2019-05-13T17:42:50.897Z,22.1
2019-05-13T17:52:51.326Z,22
2019-05-13T18:02:51.386Z,22
2019-05-13T18:12:48.508Z,21.9
2019-05-13T18:22:47.717Z,21.9
2019-05-13T18:32:46.932Z,21.9
2019-05-13T18:42:46.146Z,21.9
2019-05-13T18:52:45.372Z,21.9
2019-05-13T19:02:44.644Z,21.9
2019-05-13T19:12:43.791Z,21.9
2019-05-13T19:22:43.020Z,21.9
2019-05-13T19:32:42.231Z,21.8
2019-05-13T19:42:41.899Z,21.8
2019-05-13T19:52:41.433Z,21.8
2019-05-13T20:02:42.007Z,21.8
2019-05-13T20:12:39.085Z,21.7
2019-05-13T20:22:38.294Z,21.7
2019-05-13T20:32:37.508Z,21.7
2019-05-13T20:42:36.728Z,21.6
2019-05-13T20:52:35.949Z,21.6
2019-05-13T21:02:35.161Z,21.6
2019-05-13T21:08:02.609Z,21.6
2019-05-13T21:18:02.123Z,21.6
2019-05-13T21:28:02.086Z,21.5
2019-05-13T21:38:01.662Z,21.5
2019-05-13T21:48:01.546Z,21.4
2019-05-13T21:57:58.675Z,21.4
2019-05-13T22:07:57.895Z,21.4
2019-05-13T22:17:57.187Z,21.4
2019-05-13T22:27:56.485Z,21.4
2019-05-13T22:37:55.790Z,21.3
2019-05-13T22:47:55.081Z,21.3
2019-05-13T22:57:54.381Z,21.3
2019-05-13T23:07:53.636Z,21.3
2019-05-13T23:17:52.854Z,21.3
2019-05-13T23:27:52.072Z,21.3
2019-05-13T23:37:51.285Z,21.2
2019-05-13T23:47:51.005Z,21.3
2019-05-13T23:57:49.701Z,21.2
